Terminal Aerodrome Forecast
Issued by NWS

Home | Current Version | Previous Version | Text Only | Print | Product List | Glossary On
Versions: 1 2 3 4 5 6 7 8 9 10 11 12 13 14 15 16 17 18 19 20 21 22 23 24 25
000
FTUS43 KOAX 230532
TAFCDR
TAF
KCDR 230532Z 2306/2406 15008KT P6SM OVC015
     FM231000 14006KT 1SM BR OVC001
     FM231500 14010KT 5SM BR OVC005
     FM231800 11013KT P6SM VCTS BKN015CB=

USA.gov is the U.S. government's official web portal to all federal, state and local government web resources and services.